createdAt,value
2022-08-30T00:00:58.274Z,20.91
2022-08-30T00:01:58.266Z,20.90
2022-08-30T00:02:58.388Z,20.87
2022-08-30T00:03:58.344Z,20.87
2022-08-30T00:04:58.229Z,20.83
2022-08-30T00:05:58.230Z,20.79
2022-08-30T00:06:58.207Z,20.79
2022-08-30T00:07:58.230Z,20.78
2022-08-30T00:08:58.181Z,20.76
2022-08-30T00:09:58.191Z,20.75
2022-08-30T00:10:58.171Z,20.73
2022-08-30T00:11:58.161Z,20.73
2022-08-30T00:12:58.142Z,20.71
2022-08-30T00:13:58.146Z,20.69
2022-08-30T00:14:58.124Z,20.68
2022-08-30T00:15:58.186Z,20.68
2022-08-30T00:16:58.100Z,20.63
2022-08-30T00:17:58.094Z,20.63
2022-08-30T00:18:58.083Z,20.57
2022-08-30T00:19:58.072Z,20.54
2022-08-30T00:20:58.054Z,20.50
2022-08-30T00:21:58.052Z,20.46
2022-08-30T00:22:58.033Z,20.42
2022-08-30T00:23:58.043Z,20.41
2022-08-30T00:24:58.015Z,20.40
2022-08-30T00:25:58.005Z,20.38
2022-08-30T00:26:57.994Z,20.40
2022-08-30T00:27:57.986Z,20.35
2022-08-30T00:28:57.977Z,20.35
2022-08-30T00:29:57.976Z,20.35
2022-08-30T00:30:57.993Z,20.34
2022-08-30T00:31:57.950Z,20.34
2022-08-30T00:32:57.928Z,20.33
2022-08-30T00:33:57.919Z,20.30
2022-08-30T00:34:57.898Z,20.30
2022-08-30T00:35:57.909Z,20.30
2022-08-30T00:36:57.879Z,20.25
2022-08-30T00:37:57.882Z,20.23
2022-08-30T00:38:57.858Z,20.23
2022-08-30T00:39:57.910Z,20.22
2022-08-30T00:40:57.850Z,20.19
2022-08-30T00:41:57.849Z,20.16
2022-08-30T00:42:59.199Z,20.13
2022-08-30T00:43:57.822Z,20.15
2022-08-30T00:44:57.803Z,20.15
2022-08-30T00:45:57.872Z,20.13
2022-08-30T00:46:57.794Z,20.12
2022-08-30T00:47:57.779Z,20.08
2022-08-30T00:48:57.772Z,20.07
2022-08-30T00:49:57.751Z,20.07
2022-08-30T00:50:57.734Z,20.05
2022-08-30T00:51:57.724Z,20.05
2022-08-30T00:52:57.713Z,20.05
2022-08-30T00:53:57.736Z,20.05
2022-08-30T00:54:57.694Z,20.04
2022-08-30T00:55:57.685Z,20.04
2022-08-30T00:56:57.687Z,20.02
2022-08-30T00:57:57.667Z,20.01
2022-08-30T00:58:57.664Z,19.98
2022-08-30T00:59:57.647Z,19.97
2022-08-30T01:00:57.625Z,19.95
2022-08-30T01:01:57.702Z,19.95
2022-08-30T01:02:57.637Z,19.94
2022-08-30T01:03:57.624Z,19.92
2022-08-30T01:04:57.587Z,19.90
2022-08-30T01:05:57.578Z,19.90
2022-08-30T01:06:57.605Z,19.86
2022-08-30T01:07:57.573Z,19.83
2022-08-30T01:08:57.583Z,19.85
2022-08-30T01:09:57.578Z,19.85
2022-08-30T01:10:57.545Z,19.82
2022-08-30T01:11:57.535Z,19.76
2022-08-30T01:12:57.571Z,19.72
2022-08-30T01:13:57.523Z,19.70
2022-08-30T01:14:57.515Z,19.65
2022-08-30T01:15:57.615Z,19.65
2022-08-30T01:16:57.488Z,19.65
2022-08-30T01:17:57.476Z,19.65
2022-08-30T01:18:57.526Z,19.65
2022-08-30T01:19:57.458Z,19.62
2022-08-30T01:20:57.448Z,19.62
2022-08-30T01:21:57.428Z,19.64
2022-08-30T01:22:57.438Z,19.61
2022-08-30T01:23:57.408Z,19.61
2022-08-30T01:24:57.418Z,19.61
2022-08-30T01:25:57.418Z,19.62
2022-08-30T01:26:57.409Z,19.58
2022-08-30T01:27:57.379Z,19.57
2022-08-30T01:28:57.367Z,19.55
2022-08-30T01:29:57.343Z,19.55
2022-08-30T01:30:57.373Z,19.53
2022-08-30T01:31:57.343Z,19.50
2022-08-30T01:32:57.332Z,19.50
2022-08-30T01:33:57.311Z,19.50
2022-08-30T01:34:57.292Z,19.50
2022-08-30T01:35:57.283Z,19.49
2022-08-30T01:36:57.317Z,19.47
2022-08-30T01:37:57.272Z,19.46
2022-08-30T01:38:57.263Z,19.49
2022-08-30T01:39:57.319Z,19.49
2022-08-30T01:40:57.250Z,19.49
2022-08-30T01:41:57.251Z,19.46
2022-08-30T01:42:57.221Z,19.46
2022-08-30T01:43:57.214Z,19.46
2022-08-30T01:44:57.204Z,19.45
2022-08-30T01:45:57.237Z,19.43
2022-08-30T01:46:57.184Z,19.42
2022-08-30T01:47:57.186Z,19.39
2022-08-30T01:48:57.175Z,19.34
2022-08-30T01:49:57.155Z,19.31
2022-08-30T01:50:57.165Z,19.30
2022-08-30T01:52:01.016Z,19.27
2022-08-30T01:52:57.116Z,19.24
2022-08-30T01:53:57.123Z,19.23
2022-08-30T01:54:57.117Z,19.23
2022-08-30T01:55:57.087Z,19.21
2022-08-30T01:56:57.085Z,19.20
2022-08-30T01:57:57.058Z,19.16
2022-08-30T01:59:01.804Z,19.16
2022-08-30T01:59:58.057Z,19.16
2022-08-30T02:00:57.113Z,19.16
2022-08-30T02:01:57.049Z,19.13
2022-08-30T02:02:57.011Z,19.09
2022-08-30T02:03:57.065Z,19.09
2022-08-30T02:04:56.990Z,19.06
2022-08-30T02:05:56.986Z,19.05
2022-08-30T02:06:56.981Z,19.02
2022-08-30T02:07:56.950Z,19.01
2022-08-30T02:08:56.960Z,19.01
2022-08-30T02:09:56.941Z,19.01
2022-08-30T02:10:56.940Z,19.01
2022-08-30T02:11:56.921Z,18.99
2022-08-30T02:12:56.931Z,18.97
2022-08-30T02:13:56.903Z,18.94
2022-08-30T02:14:56.901Z,18.93
2022-08-30T02:15:56.913Z,18.93
2022-08-30T02:16:56.942Z,18.93
2022-08-30T02:17:56.843Z,18.91
2022-08-30T02:18:56.863Z,18.89
2022-08-30T02:19:56.833Z,18.89
2022-08-30T02:20:56.895Z,18.87
2022-08-30T02:21:56.824Z,18.86
2022-08-30T02:23:01.225Z,18.89
2022-08-30T02:23:56.803Z,18.87
2022-08-30T02:24:56.786Z,18.89
2022-08-30T02:25:56.775Z,18.89
2022-08-30T02:26:56.786Z,18.89
2022-08-30T02:27:56.756Z,18.86
2022-08-30T02:28:56.727Z,18.86
2022-08-30T02:29:56.726Z,18.86
2022-08-30T02:30:56.781Z,18.87
2022-08-30T02:31:56.716Z,18.86
2022-08-30T02:32:56.705Z,18.84
2022-08-30T02:33:56.698Z,18.84
2022-08-30T02:34:56.677Z,18.84
2022-08-30T02:35:56.678Z,18.83
2022-08-30T02:36:56.677Z,18.79
2022-08-30T02:37:56.638Z,18.78
2022-08-30T02:38:56.641Z,18.76
2022-08-30T02:39:56.642Z,18.74
2022-08-30T02:40:56.609Z,18.72
2022-08-30T02:41:56.619Z,18.71
2022-08-30T02:42:56.589Z,18.71
2022-08-30T02:43:56.570Z,18.71
2022-08-30T02:44:56.580Z,18.72
2022-08-30T02:45:56.588Z,18.74
2022-08-30T02:46:56.560Z,18.74
2022-08-30T02:47:56.560Z,18.74
2022-08-30T02:48:56.511Z,18.72
2022-08-30T02:49:56.509Z,18.72
2022-08-30T02:50:56.510Z,18.69
2022-08-30T02:51:56.524Z,18.69
2022-08-30T02:52:56.481Z,18.68
2022-08-30T02:53:56.471Z,18.66
2022-08-30T02:54:56.472Z,18.62
2022-08-30T02:55:56.464Z,18.64
2022-08-30T02:56:56.473Z,18.64
2022-08-30T02:57:56.425Z,18.60
2022-08-30T02:58:56.423Z,18.64
2022-08-30T02:59:56.413Z,18.62
2022-08-30T03:00:56.470Z,18.62
2022-08-30T03:01:56.406Z,18.62
2022-08-30T03:02:56.393Z,18.60
2022-08-30T03:03:56.422Z,18.59
2022-08-30T03:04:56.354Z,18.59
2022-08-30T03:05:56.358Z,18.59
2022-08-30T03:06:56.326Z,18.57
2022-08-30T03:07:56.346Z,18.57
2022-08-30T03:08:56.316Z,18.54
2022-08-30T03:09:56.306Z,18.54
2022-08-30T03:10:56.276Z,18.53
2022-08-30T03:11:56.286Z,18.50
2022-08-30T03:12:56.269Z,18.51
2022-08-30T03:13:56.278Z,18.50
2022-08-30T03:14:56.248Z,18.50
2022-08-30T03:15:56.238Z,18.51
2022-08-30T03:16:56.315Z,18.51
2022-08-30T03:17:56.226Z,18.51
2022-08-30T03:18:56.208Z,18.50
2022-08-30T03:19:56.199Z,18.50
2022-08-30T03:20:56.194Z,18.47
2022-08-30T03:21:56.170Z,18.49
2022-08-30T03:22:56.179Z,18.49
2022-08-30T03:23:56.162Z,18.47
2022-08-30T03:24:56.130Z,18.47
2022-08-30T03:25:56.131Z,18.46
2022-08-30T03:26:56.129Z,18.46
2022-08-30T03:27:56.119Z,18.42
2022-08-30T03:28:56.111Z,18.39
2022-08-30T03:29:56.082Z,18.39
2022-08-30T03:30:56.072Z,18.38
2022-08-30T03:31:56.107Z,18.36
2022-08-30T03:32:56.061Z,18.36
2022-08-30T03:33:56.039Z,18.35
2022-08-30T03:34:56.042Z,18.34
2022-08-30T03:35:56.013Z,18.34
2022-08-30T03:36:56.013Z,18.32
2022-08-30T03:37:56.352Z,18.31
2022-08-30T03:38:56.004Z,18.28
2022-08-30T03:39:55.984Z,18.26
2022-08-30T03:40:55.965Z,18.25
2022-08-30T03:41:55.966Z,18.21
2022-08-30T03:42:55.935Z,18.21
2022-08-30T03:44:00.127Z,18.20
2022-08-30T03:44:56.916Z,18.19
2022-08-30T03:45:55.968Z,18.20
2022-08-30T03:46:55.917Z,18.19
2022-08-30T03:47:55.895Z,18.20
2022-08-30T03:48:55.876Z,18.19
2022-08-30T03:49:55.897Z,18.19
2022-08-30T03:50:55.847Z,18.19
2022-08-30T03:51:55.857Z,18.19
2022-08-30T03:52:55.837Z,18.17
2022-08-30T03:53:55.827Z,18.16
2022-08-30T03:54:55.837Z,18.14
2022-08-30T03:55:55.828Z,18.13
2022-08-30T03:56:55.798Z,18.10
2022-08-30T03:57:55.779Z,18.10
2022-08-30T03:58:55.796Z,18.07
2022-08-30T03:59:55.759Z,18.07
2022-08-30T04:00:55.810Z,18.05
2022-08-30T04:01:55.777Z,18.05
2022-08-30T04:02:55.719Z,18.02
2022-08-30T04:03:55.722Z,18.01
2022-08-30T04:04:55.730Z,18.01
2022-08-30T04:05:55.711Z,18.01
2022-08-30T04:06:55.690Z,17.99
2022-08-30T04:07:55.691Z,17.98
2022-08-30T04:08:55.671Z,17.99
2022-08-30T04:09:55.651Z,17.98
2022-08-30T04:10:55.645Z,17.95
2022-08-30T04:11:55.643Z,17.94
2022-08-30T04:12:55.642Z,17.94
2022-08-30T04:13:55.632Z,17.94
2022-08-30T04:14:55.592Z,17.92
2022-08-30T04:15:55.631Z,17.92
2022-08-30T04:16:55.614Z,17.91
2022-08-30T04:17:55.573Z,17.92
2022-08-30T04:18:55.552Z,17.89
2022-08-30T04:19:55.543Z,17.86
2022-08-30T04:20:55.534Z,17.86
2022-08-30T04:21:55.534Z,17.87
2022-08-30T04:22:55.525Z,17.86
2022-08-30T04:23:55.515Z,17.86
2022-08-30T04:24:55.512Z,17.84
2022-08-30T04:25:55.496Z,17.83
2022-08-30T04:26:55.484Z,17.83
2022-08-30T04:27:55.456Z,17.81
2022-08-30T04:28:55.474Z,17.79
2022-08-30T04:29:56.272Z,17.77
2022-08-30T04:30:55.443Z,17.77
2022-08-30T04:31:55.483Z,17.76
2022-08-30T04:32:58.613Z,17.74
2022-08-30T04:33:55.415Z,17.71
2022-08-30T04:34:55.400Z,17.71
2022-08-30T04:35:55.389Z,17.70
2022-08-30T04:36:55.377Z,17.66
2022-08-30T04:37:55.357Z,17.66
2022-08-30T04:38:55.338Z,17.66
2022-08-30T04:39:55.358Z,17.66
2022-08-30T04:40:55.371Z,17.66
2022-08-30T04:41:55.319Z,17.68
2022-08-30T04:42:55.319Z,17.66
2022-08-30T04:43:55.319Z,17.68
2022-08-30T04:44:55.334Z,17.66
2022-08-30T04:45:55.339Z,17.70
2022-08-30T04:46:55.287Z,17.70
2022-08-30T04:47:56.524Z,17.71
2022-08-30T04:48:55.380Z,17.71
2022-08-30T04:49:55.241Z,17.70
2022-08-30T04:50:55.240Z,17.73
2022-08-30T04:51:55.360Z,17.76
2022-08-30T04:52:55.212Z,17.73
2022-08-30T04:53:55.505Z,17.71
2022-08-30T04:54:55.192Z,17.71
2022-08-30T04:55:55.192Z,17.71
2022-08-30T04:56:55.179Z,17.73
2022-08-30T04:57:55.191Z,17.73
2022-08-30T04:58:55.191Z,17.71
2022-08-30T04:59:55.153Z,17.71
2022-08-30T05:00:55.225Z,17.73
2022-08-30T05:01:55.186Z,17.74
2022-08-30T05:02:55.093Z,17.73
2022-08-30T05:03:55.143Z,17.76
2022-08-30T05:04:55.096Z,17.77
2022-08-30T05:05:55.074Z,17.79
2022-08-30T05:06:55.046Z,17.80
2022-08-30T05:07:55.103Z,17.83
2022-08-30T05:08:55.095Z,17.84
2022-08-30T05:09:55.736Z,17.87
2022-08-30T05:10:55.026Z,17.89
2022-08-30T05:11:55.051Z,17.92
2022-08-30T05:12:55.111Z,17.94
2022-08-30T05:13:54.994Z,17.96
2022-08-30T05:14:55.014Z,17.98
2022-08-30T05:15:55.025Z,18.01
2022-08-30T05:16:54.959Z,18.04
2022-08-30T05:17:54.965Z,18.05
2022-08-30T05:18:54.958Z,18.07
2022-08-30T05:19:54.982Z,18.09
2022-08-30T05:20:54.927Z,18.11
2022-08-30T05:21:54.962Z,18.11
2022-08-30T05:22:54.949Z,18.11
2022-08-30T05:23:54.959Z,18.14
2022-08-30T05:24:54.900Z,18.16
2022-08-30T05:25:54.889Z,18.19
2022-08-30T05:26:54.841Z,18.19
2022-08-30T05:27:54.838Z,18.20
2022-08-30T05:28:54.862Z,18.23
2022-08-30T05:29:54.812Z,18.26
2022-08-30T05:30:54.800Z,18.28
2022-08-30T05:31:54.870Z,18.28
2022-08-30T05:32:54.818Z,18.31
2022-08-30T05:33:54.788Z,18.34
2022-08-30T05:34:54.741Z,18.36
2022-08-30T05:35:54.752Z,18.38
2022-08-30T05:36:54.780Z,18.39
2022-08-30T05:37:54.802Z,18.39
2022-08-30T05:38:54.760Z,18.42
2022-08-30T05:39:54.773Z,18.44
2022-08-30T05:40:54.720Z,18.44
2022-08-30T05:41:54.683Z,18.46
2022-08-30T05:42:54.703Z,18.46
2022-08-30T05:43:54.754Z,18.46
2022-08-30T05:44:54.687Z,18.46
2022-08-30T05:45:54.648Z,18.44
2022-08-30T05:46:54.660Z,18.46
2022-08-30T05:47:54.657Z,18.46
2022-08-30T05:48:54.627Z,18.44
2022-08-30T05:49:54.595Z,18.46
2022-08-30T05:50:54.615Z,18.47
2022-08-30T05:51:54.598Z,18.47
2022-08-30T05:52:54.557Z,18.49
2022-08-30T05:53:54.554Z,18.49
2022-08-30T05:54:54.555Z,18.51
2022-08-30T05:55:54.530Z,18.51
2022-08-30T05:56:54.537Z,18.51
2022-08-30T05:57:54.498Z,18.53
2022-08-30T05:58:54.587Z,18.53
2022-08-30T05:59:54.485Z,18.54
2022-08-30T06:00:54.519Z,18.57
2022-08-30T06:01:54.638Z,18.56
2022-08-30T06:02:54.542Z,18.56
2022-08-30T06:03:54.475Z,18.56
2022-08-30T06:04:54.429Z,18.56
2022-08-30T06:05:54.425Z,18.57
2022-08-30T06:06:54.469Z,18.57
2022-08-30T06:07:54.450Z,18.57
2022-08-30T06:08:54.420Z,18.57
2022-08-30T06:09:54.399Z,18.59
2022-08-30T06:10:54.359Z,18.60
2022-08-30T06:11:54.375Z,18.62
2022-08-30T06:12:54.361Z,18.64
2022-08-30T06:13:54.369Z,18.66
2022-08-30T06:14:54.330Z,18.72
2022-08-30T06:15:54.381Z,18.75
2022-08-30T06:16:54.379Z,18.79
2022-08-30T06:17:54.316Z,18.83
2022-08-30T06:18:54.273Z,18.87
2022-08-30T06:19:54.322Z,18.91
2022-08-30T06:20:54.274Z,18.94
2022-08-30T06:21:54.264Z,18.99
2022-08-30T06:22:54.243Z,19.05
2022-08-30T06:23:54.274Z,19.12
2022-08-30T06:24:57.318Z,19.16
2022-08-30T06:25:54.235Z,19.21
2022-08-30T06:26:54.210Z,19.30
2022-08-30T06:27:56.470Z,19.35
2022-08-30T06:28:54.156Z,19.43
2022-08-30T06:29:54.177Z,19.49
2022-08-30T06:30:54.225Z,19.53
2022-08-30T06:31:54.154Z,19.61
2022-08-30T06:32:54.135Z,19.65
2022-08-30T06:33:54.156Z,19.68
2022-08-30T06:34:54.126Z,19.75
2022-08-30T06:35:59.163Z,19.79
2022-08-30T06:36:55.090Z,19.83
2022-08-30T06:37:54.109Z,19.87
2022-08-30T06:38:54.148Z,19.90
2022-08-30T06:39:54.058Z,19.94
2022-08-30T06:40:54.093Z,19.97
2022-08-30T06:41:54.040Z,20.01
2022-08-30T06:42:54.030Z,20.04
2022-08-30T06:43:54.119Z,20.07
2022-08-30T06:44:53.999Z,20.10
2022-08-30T06:45:54.020Z,20.12
2022-08-30T06:46:54.033Z,20.15
2022-08-30T06:47:54.017Z,20.16
2022-08-30T06:48:56.150Z,20.19
2022-08-30T06:49:53.961Z,20.23
2022-08-30T06:50:53.939Z,20.26
2022-08-30T06:51:53.920Z,20.31
2022-08-30T06:52:54.001Z,20.33
2022-08-30T06:53:53.962Z,20.33
2022-08-30T06:54:53.913Z,20.34
2022-08-30T06:55:54.542Z,20.35
2022-08-30T06:56:58.491Z,20.35
2022-08-30T06:57:55.892Z,20.34
2022-08-30T06:58:53.918Z,20.34
2022-08-30T06:59:57.175Z,20.34
2022-08-30T07:00:53.844Z,20.34
2022-08-30T07:01:54.612Z,20.33
2022-08-30T07:02:53.879Z,20.34
2022-08-30T07:03:54.525Z,20.33
2022-08-30T07:04:53.834Z,20.33
2022-08-30T07:05:55.353Z,20.35
2022-08-30T07:06:53.885Z,20.35
2022-08-30T07:07:54.252Z,20.35
2022-08-30T07:08:56.427Z,20.37
2022-08-30T07:09:53.779Z,20.38
2022-08-30T07:10:53.743Z,20.40
2022-08-30T07:11:53.826Z,20.40
2022-08-30T07:12:53.838Z,20.42
2022-08-30T07:13:53.708Z,20.44
2022-08-30T07:14:53.702Z,20.46
2022-08-30T07:15:53.736Z,20.48
2022-08-30T07:16:53.698Z,20.51
2022-08-30T07:17:53.665Z,20.54
2022-08-30T07:18:53.680Z,20.56
2022-08-30T07:19:53.647Z,20.58
2022-08-30T07:20:53.699Z,20.60
2022-08-30T07:21:53.608Z,20.64
2022-08-30T07:22:53.627Z,20.68
2022-08-30T07:23:53.794Z,20.73
2022-08-30T07:24:53.579Z,20.81
2022-08-30T07:25:53.620Z,20.88
2022-08-30T07:26:53.573Z,20.98
2022-08-30T07:27:53.531Z,21.05
2022-08-30T07:28:56.269Z,21.12
2022-08-30T07:29:53.522Z,21.19
2022-08-30T07:30:53.517Z,21.27
2022-08-30T07:31:53.554Z,21.33
2022-08-30T07:32:53.525Z,21.42
2022-08-30T07:33:53.494Z,21.49
2022-08-30T07:34:53.464Z,21.55
2022-08-30T07:35:53.446Z,21.63
2022-08-30T07:36:53.463Z,21.71
2022-08-30T07:37:53.436Z,21.79
2022-08-30T07:38:53.447Z,21.86
2022-08-30T07:39:53.447Z,21.94
2022-08-30T07:40:53.417Z,22.02
2022-08-30T07:41:53.385Z,22.09
2022-08-30T07:42:53.387Z,22.14
2022-08-30T07:43:53.377Z,22.21
2022-08-30T07:44:56.652Z,22.26
2022-08-30T07:45:53.366Z,22.30
2022-08-30T07:46:53.504Z,22.36
2022-08-30T07:47:53.340Z,22.42
2022-08-30T07:48:53.318Z,22.48
2022-08-30T07:49:53.317Z,22.52
2022-08-30T07:50:57.136Z,22.59
2022-08-30T07:51:54.328Z,22.64
2022-08-30T07:52:53.320Z,22.69
2022-08-30T07:53:53.306Z,22.74
2022-08-30T07:54:53.260Z,22.76
2022-08-30T07:55:53.239Z,22.81
2022-08-30T07:56:53.240Z,22.84
2022-08-30T07:57:53.326Z,22.86
2022-08-30T07:58:53.269Z,22.91
2022-08-30T07:59:53.221Z,22.94
2022-08-30T08:00:53.230Z,22.96
2022-08-30T08:01:53.253Z,22.99
2022-08-30T08:02:53.251Z,23.01
2022-08-30T08:03:53.223Z,23.03
2022-08-30T08:04:53.168Z,23.04
2022-08-30T08:05:53.143Z,23.07
2022-08-30T08:06:53.125Z,23.12
2022-08-30T08:07:53.160Z,23.15
2022-08-30T08:08:53.275Z,23.19
2022-08-30T08:09:53.133Z,23.21
2022-08-30T08:10:53.118Z,23.26
2022-08-30T08:11:53.094Z,23.32
2022-08-30T08:12:53.073Z,23.35
2022-08-30T08:13:54.060Z,23.37
2022-08-30T08:14:53.045Z,23.42
2022-08-30T08:15:53.050Z,23.44
2022-08-30T08:16:53.034Z,23.45
2022-08-30T08:17:53.015Z,23.49
2022-08-30T08:18:53.097Z,23.50
2022-08-30T08:19:53.038Z,23.52
2022-08-30T08:20:53.889Z,23.53
2022-08-30T08:22:09.194Z,23.56
2022-08-30T08:22:53.986Z,23.59
2022-08-30T08:23:52.947Z,23.60
2022-08-30T08:24:52.958Z,23.60
2022-08-30T08:25:52.978Z,23.63
2022-08-30T08:26:52.958Z,23.68
2022-08-30T08:27:52.899Z,23.69
2022-08-30T08:28:52.916Z,23.72
2022-08-30T08:29:52.906Z,23.78
2022-08-30T08:30:52.982Z,23.81
2022-08-30T08:31:52.851Z,23.84
2022-08-30T08:32:52.840Z,23.87
2022-08-30T08:33:52.878Z,23.90
2022-08-30T08:34:52.871Z,23.92
2022-08-30T08:35:52.834Z,23.96
2022-08-30T08:36:52.811Z,23.97
2022-08-30T08:37:52.842Z,24.02
2022-08-30T08:38:52.811Z,24.04
2022-08-30T08:39:52.853Z,24.05
2022-08-30T08:40:52.804Z,24.06
2022-08-30T08:41:52.754Z,24.08
2022-08-30T08:42:52.753Z,24.11
2022-08-30T08:43:52.754Z,24.15
2022-08-30T08:44:54.440Z,24.16
2022-08-30T08:45:52.741Z,24.19
2022-08-30T08:46:53.823Z,24.23
2022-08-30T08:47:52.746Z,24.26
2022-08-30T08:49:00.964Z,24.27
2022-08-30T08:49:53.695Z,24.27
2022-08-30T08:50:53.803Z,24.30
2022-08-30T08:51:52.644Z,24.31
2022-08-30T08:52:53.209Z,24.34
2022-08-30T08:53:52.667Z,24.37
2022-08-30T08:54:52.776Z,24.39
2022-08-30T08:55:52.607Z,24.42
2022-08-30T08:56:52.618Z,24.45
2022-08-30T08:57:52.612Z,24.48
2022-08-30T08:58:52.608Z,24.51
2022-08-30T08:59:52.622Z,24.52
2022-08-30T09:00:52.550Z,24.55
2022-08-30T09:01:52.571Z,24.56
2022-08-30T09:02:55.856Z,24.59
2022-08-30T09:03:52.520Z,24.63
2022-08-30T09:04:52.587Z,24.66
2022-08-30T09:05:52.497Z,24.68
2022-08-30T09:06:52.511Z,24.74
2022-08-30T09:07:52.501Z,24.75
2022-08-30T09:08:52.472Z,24.79
2022-08-30T09:09:52.473Z,24.79
2022-08-30T09:10:52.480Z,24.86
2022-08-30T09:11:52.529Z,24.86
2022-08-30T09:12:55.726Z,24.93
2022-08-30T09:13:53.553Z,24.97
2022-08-30T09:14:54.537Z,24.99
2022-08-30T09:15:55.060Z,25.05
2022-08-30T09:16:52.421Z,25.08
2022-08-30T09:17:52.405Z,25.11
2022-08-30T09:18:54.668Z,25.14
2022-08-30T09:19:52.376Z,25.19
2022-08-30T09:20:52.343Z,25.20
2022-08-30T09:21:52.869Z,25.23
2022-08-30T09:22:52.338Z,25.26
2022-08-30T09:23:52.306Z,25.27
2022-08-30T09:24:52.346Z,25.30
2022-08-30T09:25:52.297Z,25.31
2022-08-30T09:26:52.306Z,25.36
2022-08-30T09:27:52.300Z,25.39
2022-08-30T09:28:52.287Z,25.44
2022-08-30T09:29:52.294Z,25.44
2022-08-30T09:30:52.349Z,25.48
2022-08-30T09:32:01.313Z,25.49
2022-08-30T09:32:53.239Z,25.56
2022-08-30T09:33:52.209Z,25.60
2022-08-30T09:34:52.483Z,25.64
2022-08-30T09:35:52.225Z,25.64
2022-08-30T09:36:52.225Z,25.69
2022-08-30T09:37:52.216Z,25.74
2022-08-30T09:38:52.238Z,25.78
2022-08-30T09:39:52.159Z,25.81
2022-08-30T09:40:52.144Z,25.86
2022-08-30T09:41:52.152Z,25.94
2022-08-30T09:42:52.162Z,26.00
2022-08-30T09:43:52.109Z,26.04
2022-08-30T09:44:52.161Z,26.09
2022-08-30T09:45:52.201Z,26.17
2022-08-30T09:46:52.098Z,26.21
2022-08-30T09:47:52.052Z,26.28
2022-08-30T09:48:52.053Z,26.34
2022-08-30T09:49:52.094Z,26.39
2022-08-30T09:50:52.872Z,26.42
2022-08-30T09:51:53.602Z,26.47
2022-08-30T09:52:55.433Z,26.47
2022-08-30T09:54:16.507Z,26.51
2022-08-30T09:54:53.025Z,26.56
2022-08-30T09:55:53.065Z,26.64
2022-08-30T09:56:52.064Z,26.66
2022-08-30T09:57:52.669Z,26.73
2022-08-30T09:58:51.967Z,26.81
2022-08-30T09:59:52.606Z,26.83
2022-08-30T10:00:52.132Z,26.88
2022-08-30T10:01:52.971Z,26.90
2022-08-30T10:02:51.940Z,26.94
2022-08-30T10:03:53.004Z,26.97
2022-08-30T10:04:51.899Z,27.02
2022-08-30T10:05:52.043Z,27.05
2022-08-30T10:06:51.951Z,27.05
2022-08-30T10:07:53.550Z,27.08
2022-08-30T10:08:51.919Z,27.11
2022-08-30T10:09:51.873Z,27.18
2022-08-30T10:10:51.822Z,27.21
2022-08-30T10:11:51.823Z,27.27
2022-08-30T10:12:51.814Z,27.28
2022-08-30T10:13:51.783Z,27.33
2022-08-30T10:14:51.773Z,27.38
2022-08-30T10:15:51.876Z,27.40
2022-08-30T10:16:51.814Z,27.45
2022-08-30T10:17:51.828Z,27.46
2022-08-30T10:18:51.724Z,27.50
2022-08-30T10:19:51.706Z,27.53
2022-08-30T10:20:51.725Z,27.59
2022-08-30T10:21:51.726Z,27.62
2022-08-30T10:22:51.676Z,27.62
2022-08-30T10:23:51.676Z,27.65
2022-08-30T10:24:51.674Z,27.69
2022-08-30T10:25:51.724Z,27.74
2022-08-30T10:26:51.703Z,27.77
2022-08-30T10:27:51.686Z,27.77
2022-08-30T10:28:52.385Z,27.77
2022-08-30T10:29:51.611Z,27.80
2022-08-30T10:30:51.601Z,27.84
2022-08-30T10:31:51.584Z,27.88
2022-08-30T10:32:51.599Z,27.95
2022-08-30T10:33:51.560Z,27.99
2022-08-30T10:34:51.710Z,28.06
2022-08-30T10:35:51.551Z,28.11
2022-08-30T10:36:51.542Z,28.15
2022-08-30T10:37:51.602Z,28.18
2022-08-30T10:38:51.564Z,28.24
2022-08-30T10:39:51.501Z,28.30
2022-08-30T10:40:51.536Z,28.36
2022-08-30T10:41:51.551Z,28.46
2022-08-30T10:42:51.502Z,28.57
2022-08-30T10:43:52.677Z,28.67
2022-08-30T10:44:51.503Z,28.77
2022-08-30T10:45:51.435Z,28.87
2022-08-30T10:46:51.434Z,28.95
2022-08-30T10:47:51.437Z,29.02
2022-08-30T10:48:51.545Z,29.08
2022-08-30T10:49:51.419Z,29.12
2022-08-30T10:50:51.416Z,29.15
2022-08-30T10:51:51.406Z,29.21
2022-08-30T10:52:51.376Z,29.25
2022-08-30T10:53:51.388Z,29.27
2022-08-30T10:54:51.435Z,29.33
2022-08-30T10:55:51.379Z,29.39
2022-08-30T10:56:51.338Z,29.41
2022-08-30T10:57:51.339Z,29.44
2022-08-30T10:58:51.316Z,29.48
2022-08-30T10:59:51.439Z,29.52
2022-08-30T11:00:51.338Z,29.60
2022-08-30T11:01:51.320Z,29.69
2022-08-30T11:02:51.281Z,29.71
2022-08-30T11:03:51.321Z,29.73
2022-08-30T11:04:51.261Z,29.73
2022-08-30T11:05:51.261Z,29.78
2022-08-30T11:06:53.960Z,29.81
2022-08-30T11:07:52.201Z,29.85
2022-08-30T11:08:51.314Z,29.92
2022-08-30T11:09:51.231Z,30.01
2022-08-30T11:10:52.252Z,30.07
2022-08-30T11:11:51.205Z,30.13
2022-08-30T11:12:51.863Z,30.11
2022-08-30T11:13:55.822Z,30.13
2022-08-30T11:14:54.814Z,30.19
2022-08-30T11:15:51.154Z,30.25
2022-08-30T11:16:51.795Z,30.36
2022-08-30T11:17:51.146Z,30.45
2022-08-30T11:18:52.032Z,30.49
2022-08-30T11:19:51.106Z,30.56
2022-08-30T11:20:51.840Z,30.66
2022-08-30T11:21:51.130Z,30.73
2022-08-30T11:22:51.805Z,30.82
2022-08-30T11:23:51.063Z,30.86
2022-08-30T11:24:51.089Z,30.94
2022-08-30T11:25:57.435Z,31.00
2022-08-30T11:26:52.099Z,31.12
2022-08-30T11:27:51.508Z,31.25
2022-08-30T11:28:51.051Z,31.35
2022-08-30T11:29:51.022Z,31.47
2022-08-30T11:30:50.969Z,31.52
2022-08-30T11:31:51.021Z,31.62
2022-08-30T11:32:50.964Z,31.72
2022-08-30T11:33:51.006Z,31.79
2022-08-30T11:34:50.942Z,31.88
2022-08-30T11:35:50.934Z,31.95
2022-08-30T11:36:50.954Z,32.06
2022-08-30T11:37:50.944Z,32.16
2022-08-30T11:38:50.936Z,32.21
2022-08-30T11:39:51.012Z,32.27
2022-08-30T11:40:50.904Z,32.32
2022-08-30T11:41:50.876Z,32.39
2022-08-30T11:42:50.958Z,32.41
2022-08-30T11:43:50.947Z,32.36
2022-08-30T11:44:50.877Z,32.39
2022-08-30T11:45:51.557Z,32.47
2022-08-30T11:46:50.818Z,32.53
2022-08-30T11:47:50.809Z,32.53
2022-08-30T11:48:54.545Z,32.56
2022-08-30T11:49:50.816Z,32.56
2022-08-30T11:50:50.800Z,32.62
2022-08-30T11:51:58.265Z,32.65
2022-08-30T11:52:51.773Z,32.63
2022-08-30T11:53:50.739Z,32.65
2022-08-30T11:54:53.052Z,32.63
2022-08-30T11:55:50.839Z,32.66
2022-08-30T11:56:50.721Z,32.71
2022-08-30T11:57:50.702Z,32.73
2022-08-30T11:58:51.010Z,32.76
2022-08-30T11:59:50.695Z,32.81
2022-08-30T12:00:51.539Z,32.87
2022-08-30T12:01:52.306Z,32.91
2022-08-30T12:02:50.739Z,32.95
2022-08-30T12:03:50.682Z,33.03
2022-08-30T12:04:50.633Z,33.15
2022-08-30T12:05:51.337Z,33.20
2022-08-30T12:06:50.624Z,33.31
2022-08-30T12:07:50.607Z,33.34
2022-08-30T12:08:50.586Z,33.35
2022-08-30T12:09:50.594Z,33.43
2022-08-30T12:10:50.607Z,33.49
2022-08-30T12:11:50.568Z,33.56
2022-08-30T12:12:50.936Z,33.59
2022-08-30T12:13:50.532Z,33.65
2022-08-30T12:14:50.569Z,33.70
2022-08-30T12:15:50.510Z,33.77
2022-08-30T12:16:50.576Z,33.79
2022-08-30T12:17:50.697Z,33.78
2022-08-30T12:18:50.535Z,33.68
2022-08-30T12:19:50.665Z,33.60
2022-08-30T12:20:50.484Z,33.59
2022-08-30T12:21:50.454Z,33.60
2022-08-30T12:22:50.482Z,33.65
2022-08-30T12:23:51.456Z,33.71
2022-08-30T12:24:50.471Z,33.82
2022-08-30T12:25:51.513Z,33.90
2022-08-30T12:26:50.465Z,33.99
2022-08-30T12:27:51.904Z,34.05
2022-08-30T12:28:50.444Z,34.14
2022-08-30T12:29:51.065Z,34.21
2022-08-30T12:30:50.376Z,34.27
2022-08-30T12:31:52.047Z,34.34
2022-08-30T12:32:50.861Z,34.49
2022-08-30T12:33:51.773Z,34.69
2022-08-30T12:34:50.388Z,34.80
2022-08-30T12:35:51.065Z,34.81
2022-08-30T12:36:50.308Z,34.83
2022-08-30T12:37:50.348Z,34.95
2022-08-30T12:38:50.321Z,35.21
2022-08-30T12:39:53.444Z,35.46
2022-08-30T12:40:50.281Z,35.76
2022-08-30T12:41:50.749Z,35.98
2022-08-30T12:42:50.270Z,35.83
2022-08-30T12:43:50.261Z,35.71
2022-08-30T12:44:50.241Z,35.64
2022-08-30T12:45:50.982Z,35.58
2022-08-30T12:46:50.242Z,35.58
2022-08-30T12:47:50.312Z,35.58
2022-08-30T12:48:50.213Z,35.69
2022-08-30T12:49:50.182Z,36.84
2022-08-30T12:50:50.175Z,38.40
2022-08-30T12:51:50.168Z,39.68
2022-08-30T12:52:50.172Z,40.86